Time;durP1;ratioP1;P1;durP2;ratioP2;P2;SDS_P1;SDS_P2;PMS_P1;PMS_P2;Temp;Humidity;BMP_temperature;BMP_pressure;BME280_temperature;BME280_humidity;BME280_pressure;Samples;Min_cycle;Max_cycle;Signal;HPM_P1;HPM_P2
2022/05/16 00:01:43;;;;;;;9.73;3.45;;;;;;;9.74;nan;102176.00;5060368;28;20146;-42
2022/05/16 00:04:09;;;;;;;9.80;2.63;;;;;;;9.65;nan;102171.88;5065624;28;20020;-43
2022/05/16 00:06:35;;;;;;;9.43;3.08;;;;;;;9.74;nan;102181.34;5063431;28;20020;-43
2022/05/16 00:09:01;;;;;;;6.80;2.78;;;;;;;9.87;nan;102189.34;5064220;28;20524;-43
2022/05/16 00:11:27;;;;;;;6.80;3.08;;;;;;;9.91;nan;102181.75;5065847;28;20055;-43
2022/05/16 00:13:53;;;;;;;7.05;2.70;;;;;;;9.88;nan;102188.34;5063417;28;20119;-44
2022/05/16 00:16:18;;;;;;;8.02;3.03;;;;;;;9.81;nan;102181.34;5064740;28;20020;-43
2022/05/16 00:18:44;;;;;;;4.90;2.45;;;;;;;9.74;nan;102188.56;5062258;28;20020;-43
2022/05/16 00:21:10;;;;;;;9.45;3.33;;;;;;;9.58;nan;102198.66;5061350;28;20225;-43
2022/05/16 00:23:35;;;;;;;5.45;2.92;;;;;;;9.38;nan;102201.31;5063261;28;20017;-44
2022/05/16 00:26:01;;;;;;;7.78;3.17;;;;;;;9.28;nan;102208.91;5060243;28;20485;-43
2022/05/16 00:28:27;;;;;;;7.43;3.17;;;;;;;9.19;nan;102209.31;5065342;28;20024;-44
2022/05/16 00:30:52;;;;;;;5.25;2.78;;;;;;;9.15;nan;102200.03;5066317;28;20032;-44
2022/05/16 00:33:18;;;;;;;6.85;3.15;;;;;;;9.12;nan;102209.28;5062936;28;20102;-44
2022/05/16 00:35:43;;;;;;;6.03;2.90;;;;;;;9.13;nan;102200.25;5064722;28;20276;-44
2022/05/16 00:38:09;;;;;;;10.43;3.45;;;;;;;9.08;nan;102210.72;5062519;28;20036;-43
2022/05/16 00:40:34;;;;;;;9.25;3.53;;;;;;;9.06;nan;102207.44;5059254;28;20024;-44
2022/05/16 00:43:02;;;;;;;5.15;2.40;;;;;;;9.04;nan;102212.16;5061591;28;20067;-43
2022/05/16 00:45:28;;;;;;;7.10;3.00;;;;;;;8.91;nan;102202.25;5061743;28;20032;-43
2022/05/16 00:47:53;;;;;;;7.25;3.42;;;;;;;8.87;nan;102206.34;5063746;28;20029;-44
2022/05/16 00:50:19;;;;;;;11.65;3.25;;;;;;;8.81;nan;102209.03;5062587;28;20672;-43
2022/05/16 00:52:49;;;;;;;14.60;4.65;;;;;;;8.78;nan;102208.38;5062457;28;20033;-43
2022/05/16 00:55:24;;;;;;;10.90;3.97;;;;;;;8.83;nan;102209.63;5062819;28;20055;-43
2022/05/16 00:57:57;;;;;;;9.05;3.38;;;;;;;8.82;nan;102208.00;5061794;28;20123;-43
2022/05/16 01:00:26;;;;;;;13.23;4.15;;;;;;;8.79;nan;102210.00;5062779;28;20043;-43
2022/05/16 01:05:43;;;;;;;19.85;3.67;;;;;;;8.76;nan;102205.06;5064241;28;20131;-43
2022/05/16 01:08:12;;;;;;;7.20;3.20;;;;;;;8.70;nan;102213.09;5062881;28;20516;-42
2022/05/16 01:10:39;;;;;;;9.50;4.07;;;;;;;8.72;nan;102209.19;5064838;28;20043;-42
2022/05/16 01:13:05;;;;;;;6.78;3.55;;;;;;;8.77;nan;102208.56;5060189;28;20024;-44
2022/05/16 01:15:36;;;;;;;11.02;3.55;;;;;;;8.74;nan;102207.13;5056953;28;20056;-43
2022/05/16 01:18:05;;;;;;;13.32;3.35;;;;;;;8.73;nan;102220.69;5142843;22;20131;-85
2022/05/16 01:20:48;;;;;;;11.90;3.90;;;;;;;8.69;nan;102208.75;5100888;28;20612;-86
2022/05/16 01:23:19;;;;;;;13.30;4.20;;;;;;;8.72;nan;102203.00;5099591;27;20108;-86
2022/05/16 01:25:45;;;;;;;8.30;3.25;;;;;;;8.68;nan;102202.59;5097547;28;20567;-85
2022/05/16 01:28:10;;;;;;;7.35;3.05;;;;;;;8.57;nan;102205.81;5086808;28;20048;-86
2022/05/16 01:30:46;;;;;;;8.45;3.40;;;;;;;8.51;nan;102206.63;5082693;28;20031;-85
2022/05/16 01:33:13;;;;;;;11.30;3.80;;;;;;;8.52;nan;102208.28;5086033;28;20027;-85
2022/05/16 01:35:39;;;;;;;6.63;3.00;;;;;;;8.47;nan;102210.72;5083577;28;20047;-85
2022/05/16 01:38:23;;;;;;;12.38;3.30;;;;;;;8.32;nan;102204.66;5082901;28;20032;-86
2022/05/16 01:40:52;;;;;;;6.57;2.90;;;;;;;8.23;nan;102208.50;5083852;28;20761;-85
2022/05/16 01:43:21;;;;;;;8.38;3.35;;;;;;;8.26;nan;102197.41;5090553;28;20015;-84
2022/05/16 01:45:47;;;;;;;10.50;3.60;;;;;;;8.21;nan;102199.88;5088384;28;20019;-85
2022/05/16 01:48:15;;;;;;;13.43;3.35;;;;;;;8.19;nan;102208.91;5084995;28;20028;-86
2022/05/16 01:50:42;;;;;;;18.58;4.13;;;;;;;8.22;nan;102201.50;5086805;28;20031;-85
2022/05/16 01:53:08;;;;;;;15.52;3.65;;;;;;;8.16;nan;102201.28;5083011;28;20016;-85
2022/05/16 01:55:34;;;;;;;8.25;3.38;;;;;;;8.09;nan;102205.78;5090533;28;20034;-86
2022/05/16 01:57:59;;;;;;;7.95;3.40;;;;;;;8.05;nan;102206.34;5088265;28;20528;-85
2022/05/16 02:00:25;;;;;;;14.23;3.45;;;;;;;8.07;nan;102201.63;5084945;28;20721;-85
2022/05/16 02:02:51;;;;;;;10.40;3.75;;;;;;;8.06;nan;102198.13;5085273;28;20025;-85
2022/05/16 02:05:22;;;;;;;8.23;3.60;;;;;;;7.97;nan;102198.50;5084284;28;20031;-85
2022/05/16 02:07:51;;;;;;;6.13;2.88;;;;;;;7.85;nan;102192.84;5087011;28;20366;-85
2022/05/16 02:10:20;;;;;;;7.03;3.50;;;;;;;7.73;nan;102191.75;5083333;28;20392;-86
2022/05/16 02:12:46;;;;;;;6.80;2.80;;;;;;;7.66;nan;102190.88;5087952;28;20022;-85
2022/05/16 02:15:16;;;;;;;8.20;3.20;;;;;;;7.71;nan;102177.75;5082533;28;20055;-85
2022/05/16 02:17:41;;;;;;;6.07;2.90;;;;;;;7.71;nan;102193.78;5083019;28;20430;-85
2022/05/16 02:20:08;;;;;;;5.47;3.08;;;;;;;7.71;nan;102197.25;5088766;28;20020;-85
2022/05/16 02:25:18;;;;;;;5.18;3.13;;;;;;;7.73;nan;102187.25;5082737;28;20095;-86
2022/05/16 02:27:47;;;;;;;5.60;3.60;;;;;;;7.73;nan;102189.91;5082341;28;20040;-85
2022/05/16 02:30:13;;;;;;;5.45;2.95;;;;;;;7.65;nan;102183.88;5084994;28;20461;-85
2022/05/16 02:32:39;;;;;;;8.77;3.75;;;;;;;7.60;nan;102178.31;5070457;28;20520;-86
2022/05/16 02:35:06;;;;;;;5.38;3.00;;;;;;;7.63;nan;102177.94;5084717;28;20585;-85
2022/05/16 02:37:32;;;;;;;7.45;3.55;;;;;;;7.60;nan;102173.81;5078434;28;20137;-84
2022/05/16 02:39:57;;;;;;;6.45;3.08;;;;;;;7.57;nan;102177.69;5082815;28;20231;-86
2022/05/16 02:42:26;;;;;;;11.25;3.75;;;;;;;7.53;nan;102171.06;5081656;28;20024;-85
2022/05/16 02:44:52;;;;;;;13.82;3.88;;;;;;;7.50;nan;102176.78;5077771;28;20112;-85
2022/05/16 02:47:20;;;;;;;13.90;3.65;;;;;;;7.46;nan;102170.19;5083100;28;20473;-86
2022/05/16 02:49:46;;;;;;;16.52;4.53;;;;;;;7.41;nan;102166.47;5083976;28;20103;-84
2022/05/16 02:52:12;;;;;;;12.68;4.40;;;;;;;7.34;nan;102168.22;5088626;28;20059;-86
2022/05/16 02:54:38;;;;;;;10.45;3.15;;;;;;;7.36;nan;102169.72;5089378;28;20028;-85
2022/05/16 02:57:05;;;;;;;9.80;3.38;;;;;;;7.36;nan;102163.53;5089256;28;20078;-85
2022/05/16 02:59:34;;;;;;;15.02;3.25;;;;;;;7.32;nan;102167.59;5074306;28;20031;-85
2022/05/16 03:02:00;;;;;;;10.63;3.30;;;;;;;7.26;nan;102163.88;5092229;28;20452;-85
2022/05/16 03:04:26;;;;;;;10.82;3.22;;;;;;;7.25;nan;102163.06;5085260;28;20020;-86
2022/05/16 03:06:52;;;;;;;9.40;3.30;;;;;;;7.12;nan;102164.75;5089887;28;20468;-85
2022/05/16 03:09:18;;;;;;;12.82;3.22;;;;;;;7.05;nan;102167.38;5067351;28;20025;-85
2022/05/16 03:11:45;;;;;;;10.75;3.30;;;;;;;7.08;nan;102156.31;5086468;28;20039;-86
2022/05/16 03:14:11;;;;;;;9.38;3.42;;;;;;;7.09;nan;102165.16;5086520;28;20058;-85
2022/05/16 03:16:38;;;;;;;6.20;3.25;;;;;;;7.07;nan;102160.00;5089762;28;20020;-85
2022/05/16 03:19:04;;;;;;;8.13;3.90;;;;;;;7.04;nan;102155.06;5093153;28;20099;-85
2022/05/16 03:21:30;;;;;;;5.90;3.25;;;;;;;7.04;nan;102148.91;5079591;28;20072;-85
2022/05/16 03:23:59;;;;;;;7.05;3.38;;;;;;;7.03;nan;102152.59;5089968;28;20047;-86
2022/05/16 03:26:25;;;;;;;6.43;3.03;;;;;;;7.03;nan;102158.75;5084180;28;20090;-86
2022/05/16 03:28:51;;;;;;;8.75;3.53;;;;;;;7.09;nan;102165.16;5074713;28;20101;-85
2022/05/16 03:31:17;;;;;;;7.35;3.45;;;;;;;7.10;nan;102170.28;5094607;28;20501;-86
2022/05/16 03:33:43;;;;;;;7.45;3.65;;;;;;;7.08;nan;102167.00;5088595;28;20047;-85
2022/05/16 03:36:09;;;;;;;7.07;3.13;;;;;;;7.11;nan;102163.94;5090031;28;20443;-85
2022/05/16 03:41:19;;;;;;;8.13;3.97;;;;;;;7.19;nan;102166.50;5092542;28;20567;-86
2022/05/16 03:43:45;;;;;;;5.15;3.15;;;;;;;7.15;nan;102167.03;5085355;28;20016;-84
2022/05/16 03:46:11;;;;;;;7.82;3.72;;;;;;;7.12;nan;102172.75;5093499;28;20043;-85
2022/05/16 03:48:37;;;;;;;8.23;3.22;;;;;;;7.03;nan;102166.75;5094457;28;20052;-85
2022/05/16 03:51:04;;;;;;;7.45;3.50;;;;;;;7.05;nan;102171.88;5091436;28;20044;-84
2022/05/16 03:53:30;;;;;;;6.68;4.00;;;;;;;7.01;nan;102159.97;5090700;28;20016;-84
2022/05/16 03:55:56;;;;;;;6.45;3.17;;;;;;;7.04;nan;102165.72;5086469;28;20028;-86
2022/05/16 03:58:21;;;;;;;5.40;3.42;;;;;;;7.09;nan;102167.81;5084263;28;20091;-85
2022/05/16 04:00:47;;;;;;;9.85;3.75;;;;;;;7.11;nan;102166.59;5088163;28;20111;-85
2022/05/16 04:03:14;;;;;;;7.82;3.78;;;;;;;7.19;nan;102163.00;5088141;28;20028;-85
2022/05/16 04:05:40;;;;;;;8.65;4.38;;;;;;;7.23;nan;102153.59;5091612;28;20119;-86
2022/05/16 04:08:06;;;;;;;10.68;5.10;;;;;;;7.30;nan;102151.81;5090627;28;20059;-85
2022/05/16 04:10:32;;;;;;;11.00;4.32;;;;;;;7.37;nan;102155.38;5087116;28;20035;-86
2022/05/16 04:12:57;;;;;;;11.52;4.88;;;;;;;7.44;nan;102155.41;5088909;28;20016;-86
2022/05/16 04:15:25;;;;;;;15.30;4.72;;;;;;;7.50;nan;102150.13;5079058;28;20033;-85
2022/05/16 04:17:51;;;;;;;8.52;4.53;;;;;;;7.58;nan;102150.00;5085915;28;20036;-85
2022/05/16 04:20:18;;;;;;;9.02;4.40;;;;;;;7.68;nan;102151.47;5074363;28;20029;-86
2022/05/16 04:22:44;;;;;;;9.23;4.20;;;;;;;7.77;nan;102147.66;5090932;28;20109;-85
2022/05/16 04:25:13;;;;;;;10.07;3.60;;;;;;;7.85;nan;102150.16;5087490;28;20629;-86
2022/05/16 04:27:39;;;;;;;14.80;4.70;;;;;;;7.96;nan;102152.28;5083615;28;20024;-86
2022/05/16 04:30:05;;;;;;;9.25;4.47;;;;;;;8.05;nan;102151.09;5075067;28;20024;-85
2022/05/16 04:32:31;;;;;;;9.88;3.85;;;;;;;8.19;nan;102158.16;5091405;28;20028;-86
2022/05/16 04:34:56;;;;;;;7.55;3.80;;;;;;;8.30;nan;102156.78;5084017;28;20085;-86
2022/05/16 04:37:22;;;;;;;7.25;3.80;;;;;;;8.41;nan;102163.44;5079726;28;20082;-86
2022/05/16 04:39:48;;;;;;;7.90;4.07;;;;;;;8.52;nan;102160.19;5085887;28;20030;-85
2022/05/16 04:44:58;;;;;;;7.65;3.83;;;;;;;8.76;nan;102159.66;5079165;28;20039;-85
2022/05/16 04:47:23;;;;;;;6.60;4.18;;;;;;;8.84;nan;102157.84;5082287;28;20103;-85
2022/05/16 04:49:49;;;;;;;12.82;3.88;;;;;;;8.93;nan;102157.44;5087361;28;20020;-85
2022/05/16 04:52:14;;;;;;;12.85;4.22;;;;;;;9.03;nan;102165.88;5071637;28;20474;-85
2022/05/16 04:54:40;;;;;;;8.88;4.18;;;;;;;9.10;nan;102165.88;5081970;28;20047;-84
2022/05/16 04:57:07;;;;;;;6.80;4.45;;;;;;;9.20;nan;102160.97;5079452;28;20099;-85
2022/05/16 04:59:33;;;;;;;8.80;3.80;;;;;;;9.28;nan;102166.13;5090208;28;20070;-84
2022/05/16 05:01:58;;;;;;;11.35;3.88;;;;;;;9.38;nan;102171.91;5092129;28;20024;-86
2022/05/16 05:04:24;;;;;;;9.93;3.97;;;;;;;9.49;nan;102164.25;5082102;28;20047;-85
2022/05/16 05:06:50;;;;;;;17.67;4.32;;;;;;;9.61;nan;102155.41;5084573;28;20025;-85
2022/05/16 05:09:16;;;;;;;8.20;3.42;;;;;;;9.75;nan;102160.75;5081603;28;20034;-87
2022/05/16 05:14:33;;;;;;;6.15;3.05;;;;;;;10.02;nan;102154.31;5038276;28;20041;-50
2022/05/16 05:17:04;;;;;;;6.45;3.20;;;;;;;10.15;nan;102162.31;5047592;28;20111;-48
2022/05/16 05:19:31;;;;;;;10.20;3.90;;;;;;;10.28;nan;102164.19;5041775;28;20089;-48
2022/05/16 05:21:57;;;;;;;9.32;4.20;;;;;;;10.43;nan;102161.25;5045386;28;20036;-49
2022/05/16 05:24:23;;;;;;;11.15;4.20;;;;;;;10.53;nan;102165.09;5043347;28;20119;-48
2022/05/16 05:26:50;;;;;;;10.13;3.50;;;;;;;10.68;nan;102169.34;5078751;22;20052;-43
2022/05/16 05:29:16;;;;;;;10.50;3.47;;;;;;;10.80;nan;102170.34;5082114;28;20047;-43
2022/05/16 05:31:43;;;;;;;7.45;3.45;;;;;;;10.87;nan;102168.44;5085050;28;20027;-43
2022/05/16 05:34:10;;;;;;;8.90;3.30;;;;;;;11.00;nan;102159.50;5078684;28;20024;-43
2022/05/16 05:36:35;;;;;;;12.63;3.67;;;;;;;11.14;nan;102156.50;5094657;27;20015;-44
2022/05/16 05:39:02;;;;;;;10.52;3.70;;;;;;;11.30;nan;102151.63;5104955;27;20556;-43
2022/05/16 05:41:28;;;;;;;6.15;3.40;;;;;;;11.40;nan;102154.66;5106557;27;20030;-44
2022/05/16 05:43:54;;;;;;;9.02;3.40;;;;;;;11.48;nan;102151.66;5100250;28;20031;-44
2022/05/16 05:46:20;;;;;;;7.38;3.50;;;;;;;11.63;nan;102152.16;5096908;27;20027;-44
2022/05/16 05:48:46;;;;;;;8.02;3.10;;;;;;;11.77;nan;102148.31;5093792;28;20058;-44
2022/05/16 05:51:12;;;;;;;5.97;3.13;;;;;;;11.92;nan;102152.53;5095714;28;20047;-45
2022/05/16 05:53:39;;;;;;;5.07;2.33;;;;;;;12.05;nan;102152.41;5098186;27;20073;-44
2022/05/16 05:56:05;;;;;;;8.23;2.63;;;;;;;12.20;nan;102150.16;5096489;27;20054;-44
2022/05/16 05:58:33;;;;;;;18.60;3.28;;;;;;;12.36;nan;102154.91;5100950;27;20489;-44
2022/05/16 06:00:59;;;;;;;10.80;2.85;;;;;;;12.53;nan;102144.38;5098367;27;20440;-44
2022/05/16 06:03:25;;;;;;;9.85;2.17;;;;;;;12.66;nan;102149.56;5099803;27;20078;-44
2022/05/16 06:05:50;;;;;;;8.43;2.78;;;;;;;12.77;nan;102152.56;5104328;27;20035;-44
2022/05/16 06:08:16;;;;;;;9.65;2.20;;;;;;;12.93;nan;102143.84;5096356;27;20427;-44
2022/05/16 06:10:42;;;;;;;13.23;2.47;;;;;;;13.08;nan;102152.28;5102455;27;20018;-44
2022/05/16 06:13:08;;;;;;;4.80;2.13;;;;;;;13.17;nan;102150.09;5095589;27;20022;-44
2022/05/16 06:15:34;;;;;;;14.60;2.50;;;;;;;13.27;nan;102148.47;5102219;27;20031;-44
2022/05/16 06:17:59;;;;;;;4.95;2.17;;;;;;;13.34;nan;102161.84;5096858;28;20034;-45
2022/05/16 06:20:25;;;;;;;6.78;2.92;;;;;;;13.41;nan;102165.25;5097336;28;20034;-44
2022/05/16 06:22:51;;;;;;;9.18;2.30;;;;;;;13.59;nan;102158.94;5094968;28;20024;-44
2022/05/16 06:25:31;;;;;;;13.10;3.10;;;;;;;13.76;nan;102153.66;5095227;27;21053;-45
2022/05/16 06:27:59;;;;;;;6.07;2.40;;;;;;;13.88;nan;102149.91;5093343;28;20095;-44
2022/05/16 06:30:25;;;;;;;7.85;2.63;;;;;;;14.04;nan;102150.25;5093676;28;20042;-44
2022/05/16 06:32:51;;;;;;;10.38;2.30;;;;;;;14.13;nan;102152.34;5095454;28;20020;-43
2022/05/16 06:35:18;;;;;;;3.78;1.80;;;;;;;14.22;nan;102152.81;5096233;28;20224;-44
2022/05/16 06:37:43;;;;;;;4.63;2.03;;;;;;;14.24;nan;102153.38;5098765;28;20027;-44
2022/05/16 06:40:11;;;;;;;6.30;2.60;;;;;;;14.36;nan;102154.19;5092498;28;20028;-44
2022/05/16 06:42:36;;;;;;;8.27;2.65;;;;;;;14.54;nan;102158.56;5098740;28;20085;-44
2022/05/16 06:45:03;;;;;;;4.38;2.15;;;;;;;14.65;nan;102165.00;5094773;28;20031;-42
2022/05/16 06:47:28;;;;;;;5.38;1.83;;;;;;;14.73;nan;102165.44;5101768;28;20500;-42
2022/05/16 06:49:54;;;;;;;8.25;2.03;;;;;;;14.78;nan;102162.03;5096245;28;20027;-42
2022/05/16 06:52:20;;;;;;;4.70;1.92;;;;;;;14.88;nan;102153.28;5096702;28;20045;-42
2022/05/16 06:54:45;;;;;;;18.65;3.38;;;;;;;15.02;nan;102152.72;5094710;28;20081;-42
2022/05/16 06:57:12;;;;;;;8.95;2.22;;;;;;;15.16;nan;102142.44;5101429;28;20024;-42
2022/05/16 06:59:37;;;;;;;5.70;1.70;;;;;;;15.28;nan;102145.91;5099324;28;20066;-42
2022/05/16 07:02:05;;;;;;;1.95;1.40;;;;;;;15.35;nan;102151.94;5097024;28;20039;-42
2022/05/16 07:04:31;;;;;;;8.70;1.85;;;;;;;15.43;nan;102151.53;5099009;28;20459;-42
2022/05/16 07:06:57;;;;;;;4.50;1.50;;;;;;;15.49;nan;102157.03;5096076;28;20020;-42
2022/05/16 07:09:23;;;;;;;4.70;1.23;;;;;;;15.50;nan;102156.78;5093055;28;20333;-42
2022/05/16 07:11:48;;;;;;;5.65;1.50;;;;;;;15.59;nan;102149.09;5095838;28;20032;-42
2022/05/16 07:14:14;;;;;;;6.85;1.90;;;;;;;15.75;nan;102152.84;5090861;28;20763;-42
2022/05/16 07:16:40;;;;;;;3.42;1.52;;;;;;;15.87;nan;102153.56;5094278;28;20031;-42
2022/05/16 07:19:06;;;;;;;4.50;1.60;;;;;;;15.97;nan;102154.50;5094494;28;20020;-42
2022/05/16 07:21:32;;;;;;;11.38;2.42;;;;;;;16.03;nan;102152.69;5091903;28;20031;-42
2022/05/16 07:23:58;;;;;;;6.80;1.85;;;;;;;16.18;nan;102152.91;5087221;28;20020;-44
2022/05/16 07:29:07;;;;;;;5.15;2.00;;;;;;;16.47;nan;102141.88;5095483;28;20377;-42
2022/05/16 07:31:33;;;;;;;16.77;2.45;;;;;;;16.49;nan;102145.13;5091214;28;20032;-42
2022/05/16 07:34:00;;;;;;;4.53;1.58;;;;;;;16.51;nan;102143.00;5091692;28;20562;-42
2022/05/16 07:36:26;;;;;;;5.65;1.55;;;;;;;16.52;nan;102140.06;5092623;28;20031;-43
2022/05/16 07:38:52;;;;;;;8.93;1.42;;;;;;;16.58;nan;102144.44;5092976;28;20034;-43
2022/05/16 07:41:17;;;;;;;7.00;1.50;;;;;;;16.73;nan;102156.53;5090523;28;20020;-42
2022/05/16 07:43:44;;;;;;;7.93;2.20;;;;;;;16.90;nan;102157.25;5093755;27;20119;-43
2022/05/16 07:46:10;;;;;;;6.60;1.80;;;;;;;16.85;nan;102149.06;5097073;27;20387;-42
2022/05/16 07:48:35;;;;;;;6.50;1.67;;;;;;;16.81;nan;102147.94;5094540;27;20033;-42
2022/05/16 07:51:01;;;;;;;5.53;1.40;;;;;;;16.95;nan;102151.88;5097586;27;20146;-42
2022/05/16 07:53:27;;;;;;;6.03;1.77;;;;;;;17.11;nan;102147.44;5094745;27;20019;-43
2022/05/16 07:55:55;;;;;;;3.17;1.77;;;;;;;17.21;nan;102145.59;5092870;28;20032;-42
2022/05/16 07:58:22;;;;;;;6.40;1.95;;;;;;;17.26;nan;102144.03;5097396;27;20828;-42
2022/05/16 08:00:50;;;;;;;4.10;1.65;;;;;;;17.38;nan;102141.94;5095860;27;20496;-42
2022/05/16 08:03:18;;;;;;;8.55;1.88;;;;;;;17.47;nan;102149.34;5094254;27;20440;-42
2022/05/16 08:05:44;;;;;;;5.72;1.92;;;;;;;17.51;nan;102150.44;5095468;27;20463;-43
2022/05/16 08:10:57;;;;;;;10.10;2.00;;;;;;;17.87;nan;102155.31;5095602;27;20034;-43
2022/05/16 08:13:23;;;;;;;6.45;1.55;;;;;;;18.05;nan;102154.88;5096249;28;20417;-44
2022/05/16 08:15:48;;;;;;;7.00;2.00;;;;;;;18.08;nan;102152.44;5092867;27;20032;-43
2022/05/16 08:18:14;;;;;;;6.20;2.13;;;;;;;18.16;nan;102148.41;5099032;28;20054;-42
2022/05/16 08:20:43;;;;;;;5.60;2.08;;;;;;;18.31;nan;102158.50;5100271;27;20061;-43
2022/05/16 08:23:11;;;;;;;4.30;1.88;;;;;;;18.20;nan;102152.22;5103055;27;20015;-42
2022/05/16 08:25:36;;;;;;;7.63;2.30;;;;;;;18.32;nan;102147.41;5097337;27;20020;-42
2022/05/16 08:28:02;;;;;;;8.48;1.90;;;;;;;18.45;nan;102143.34;5097737;27;20088;-42
2022/05/16 08:30:28;;;;;;;4.60;1.48;;;;;;;18.59;nan;102146.38;5094999;27;20408;-43
2022/05/16 08:32:57;;;;;;;6.43;2.00;;;;;;;18.71;nan;102139.66;5099921;27;20030;-42
2022/05/16 08:35:23;;;;;;;4.47;1.83;;;;;;;18.91;nan;102147.00;5098025;27;20027;-42
2022/05/16 08:41:04;;;;;;;11.15;2.33;;;;;;;19.11;nan;102148.13;5097683;27;20086;-42
2022/05/16 08:43:36;;;;;;;8.05;1.92;;;;;;;19.02;nan;102139.69;5095748;28;20035;-42
2022/05/16 08:46:10;;;;;;;6.22;2.00;;;;;;;19.08;nan;102143.22;5100934;28;20069;-42
2022/05/16 08:48:43;;;;;;;6.95;1.90;;;;;;;19.26;nan;102138.06;5096417;27;20027;-42
2022/05/16 08:51:18;;;;;;;6.40;1.92;;;;;;;19.44;nan;102144.84;5100835;27;20027;-42
2022/05/16 08:53:49;;;;;;;5.45;1.85;;;;;;;19.55;nan;102141.03;5095096;28;20016;-42
2022/05/16 08:56:23;;;;;;;12.23;2.10;;;;;;;19.65;nan;102139.41;5095264;28;20043;-42
2022/05/16 08:58:58;;;;;;;9.57;2.72;;;;;;;19.71;nan;102139.09;5096242;27;20392;-42
2022/05/16 09:01:31;;;;;;;6.75;2.53;;;;;;;19.66;nan;102128.25;5099547;27;20027;-42
2022/05/16 09:04:02;;;;;;;7.10;2.40;;;;;;;19.76;nan;102128.25;5099043;27;20032;-43
2022/05/16 09:06:35;;;;;;;7.68;2.53;;;;;;;19.93;nan;102133.34;5092197;27;20030;-43
2022/05/16 09:09:12;;;;;;;6.35;2.00;;;;;;;20.03;nan;102125.13;5096267;27;20076;-42
2022/05/16 09:11:58;;;;;;;9.25;2.30;;;;;;;20.03;nan;102122.41;5095525;27;20243;-43
2022/05/16 09:15:02;;;;;;;4.38;1.95;;;;;;;19.93;nan;102125.19;5095102;27;20035;-42
2022/05/16 09:17:49;;;;;;;4.82;2.08;;;;;;;20.01;nan;102119.16;5100996;27;20373;-42
2022/05/16 09:20:20;;;;;;;5.75;2.08;;;;;;;19.99;nan;102126.78;5101471;28;20028;-43
2022/05/16 09:23:13;;;;;;;7.30;2.38;;;;;;;19.93;nan;102114.31;5098882;28;20436;-42
2022/05/16 09:26:04;;;;;;;4.65;2.33;;;;;;;19.84;nan;102115.97;5058758;27;20472;-42
2022/05/16 09:28:34;;;;;;;8.20;2.92;;;;;;;19.91;nan;102108.31;5097142;27;20028;-42
2022/05/16 09:31:08;;;;;;;10.32;2.45;;;;;;;20.14;nan;102102.25;5098041;27;20709;-42
2022/05/16 09:33:42;;;;;;;8.80;2.30;;;;;;;20.32;nan;102098.06;5105658;27;20016;-42
2022/05/16 09:36:12;;;;;;;3.50;1.60;;;;;;;20.58;nan;102101.47;5099961;27;20529;-42
2022/05/16 09:38:43;;;;;;;7.05;2.13;;;;;;;20.75;nan;102104.63;5104526;27;20031;-42
2022/05/16 09:41:25;;;;;;;6.97;2.47;;;;;;;20.81;nan;102106.22;5102477;27;20054;-42
2022/05/16 09:44:03;;;;;;;7.13;1.90;;;;;;;21.04;nan;102107.41;5097032;28;20118;-43
2022/05/16 09:46:34;;;;;;;4.80;1.98;;;;;;;21.22;nan;102103.16;5099546;28;20024;-43
2022/05/16 09:49:10;;;;;;;4.68;1.70;;;;;;;21.37;nan;102094.88;5092817;27;21415;-43
2022/05/16 09:51:45;;;;;;;8.65;2.03;;;;;;;21.23;nan;102090.34;5091300;27;20341;-42
2022/05/16 09:54:31;;;;;;;9.80;2.47;;;;;;;21.01;nan;102085.38;5092529;27;20031;-42
2022/05/16 09:56:56;;;;;;;3.85;1.48;;;;;;;21.07;nan;102084.22;5090733;27;20038;-42
2022/05/16 09:59:42;;;;;;;3.15;1.50;;;;;;;21.02;nan;102081.56;5093644;28;20171;-42
2022/05/16 10:02:31;;;;;;;3.75;1.30;;;;;;;20.93;nan;102086.78;5089592;28;20059;-41
2022/05/16 10:05:00;;;;;;;5.60;1.88;;;;;;;20.93;nan;102084.06;5096817;28;20027;-43
2022/05/16 10:07:41;;;;;;;3.83;1.52;;;;;;;21.07;nan;102081.50;5093013;28;20044;-43
2022/05/16 10:10:09;;;;;;;2.60;1.80;;;;;;;21.31;nan;102082.38;5090530;28;20053;-43
2022/05/16 10:12:35;;;;;;;6.03;1.70;;;;;;;21.42;nan;102074.91;5096891;28;20259;-43
2022/05/16 10:15:01;;;;;;;5.60;1.77;;;;;;;21.45;nan;102077.06;5093312;28;20031;-44
2022/05/16 10:17:37;;;;;;;2.97;1.65;;;;;;;21.52;nan;102071.25;5090911;28;20032;-43
2022/05/16 10:20:24;;;;;;;16.52;1.98;;;;;;;21.44;nan;102077.34;5086676;28;20028;-43
2022/05/16 10:22:55;;;;;;;12.18;1.88;;;;;;;21.51;nan;102069.63;5084988;28;20090;-42
2022/05/16 10:25:27;;;;;;;4.13;1.23;;;;;;;21.72;nan;102071.00;5088271;27;20417;-42
2022/05/16 10:27:54;;;;;;;10.23;2.00;;;;;;;21.90;nan;102072.16;5090075;28;20628;-42
2022/05/16 10:30:25;;;;;;;3.25;1.67;;;;;;;22.08;nan;102060.50;5085913;28;20035;-42
2022/05/16 10:35:57;;;;;;;5.20;1.80;;;;;;;22.03;nan;102074.19;5096302;28;20055;-42
2022/05/16 10:38:29;;;;;;;4.97;1.58;;;;;;;21.73;nan;102072.66;5092802;28;20024;-43
2022/05/16 10:40:58;;;;;;;4.25;1.50;;;;;;;21.71;nan;102074.84;5095042;28;20084;-42
2022/05/16 10:43:41;;;;;;;3.47;1.92;;;;;;;21.82;nan;102070.09;5097358;28;20019;-41
2022/05/16 10:46:18;;;;;;;4.05;1.60;;;;;;;21.91;nan;102065.63;5095081;28;20096;-42
2022/05/16 10:48:48;;;;;;;2.70;1.45;;;;;;;22.11;nan;102068.13;5092917;28;20104;-41
2022/05/16 10:51:16;;;;;;;15.40;2.47;;;;;;;22.03;nan;102068.72;5095165;28;20038;-41
2022/05/16 10:53:56;;;;;;;4.88;1.60;;;;;;;21.89;nan;102056.91;5093305;28;20024;-41
2022/05/16 10:56:31;;;;;;;4.90;1.52;;;;;;;21.81;nan;102047.47;5089336;28;20272;-42
2022/05/16 10:59:06;;;;;;;4.38;1.80;;;;;;;21.96;nan;102044.53;5096507;28;20834;-42
2022/05/16 11:01:42;;;;;;;;;;;;;;;22.10;nan;102041.94;5090981;28;20035;-41
2022/05/16 11:04:35;;;;;;;5.05;1.90;;;;;;;22.37;nan;102038.53;5091122;28;19919;-41
2022/05/16 11:07:25;;;;;;;4.25;2.00;;;;;;;22.33;nan;102034.75;5094599;28;20024;-41
2022/05/16 11:10:35;;;;;;;5.30;1.63;;;;;;;22.09;nan;102032.13;5079303;28;20028;-41
2022/05/16 11:13:17;;;;;;;9.70;1.83;;;;;;;22.27;nan;102039.50;5037052;28;20597;-41
2022/05/16 11:15:53;;;;;;;3.88;1.50;;;;;;;22.64;nan;102040.56;5093220;28;20447;-41
2022/05/16 11:18:31;;;;;;;4.38;1.50;;;;;;;22.76;nan;102037.34;5101050;28;20051;-42
2022/05/16 11:21:03;;;;;;;4.07;1.85;;;;;;;22.94;nan;102038.44;5102408;28;20454;-41
2022/05/16 11:23:47;;;;;;;3.63;1.50;;;;;;;22.86;nan;102040.75;5097565;27;20080;-41
2022/05/16 11:26:19;;;;;;;7.13;1.50;;;;;;;23.00;nan;102045.47;5097773;27;20024;-42
2022/05/16 11:29:18;;;;;;;3.53;1.63;;;;;;;23.03;nan;102036.66;5097182;27;20082;-41
2022/05/16 11:32:06;;;;;;;2.80;1.23;;;;;;;23.28;nan;102021.69;5096421;27;20408;-41
2022/05/16 11:34:56;;;;;;;3.72;1.67;;;;;;;23.65;nan;102024.25;5099256;27;20036;-42
2022/05/16 11:37:36;;;;;;;4.32;1.60;;;;;;;23.91;nan;102021.81;5099395;27;20032;-42
2022/05/16 11:40:02;;;;;;;5.72;1.60;;;;;;;23.94;nan;102015.69;5097040;28;20103;-42
2022/05/16 11:42:38;;;;;;;3.35;1.73;;;;;;;23.69;nan;102024.44;5096709;27;20282;-42
2022/05/16 11:45:09;;;;;;;4.10;1.60;;;;;;;23.91;nan;102023.72;5092832;27;20035;-41
2022/05/16 11:47:56;;;;;;;4.18;1.65;;;;;;;23.98;nan;102021.38;5094257;28;20493;-42
2022/05/16 11:50:40;;;;;;;3.97;1.67;;;;;;;24.06;nan;102004.22;5097899;28;20034;-42
2022/05/16 11:53:27;;;;;;;6.40;1.48;;;;;;;23.81;nan;101995.44;5098495;27;20019;-42
2022/05/16 12:01:35;;;;;;;5.40;1.88;;;;;;;24.01;nan;101993.38;5092991;27;20043;-43
2022/05/16 12:04:13;;;;;;;2.75;1.42;;;;;;;24.24;nan;101989.56;5094144;28;20020;-43
2022/05/16 12:06:50;;;;;;;4.35;1.60;;;;;;;24.47;nan;101984.91;5094796;27;20416;-43
2022/05/16 12:09:31;;;;;;;3.53;1.60;;;;;;;24.76;nan;101983.63;5097626;28;20063;-42
2022/05/16 12:12:34;;;;;;;8.32;1.73;;;;;;;24.82;nan;101987.88;5098969;28;20084;-42
2022/05/16 12:15:29;;;;;;;5.53;1.30;;;;;;;24.91;nan;101983.22;5100549;27;20031;-42
2022/05/16 12:17:59;;;;;;;7.78;1.88;;;;;;;25.03;nan;101978.00;5097952;28;20111;-44
2022/05/16 12:20:56;;;;;;;7.72;2.00;;;;;;;25.16;nan;101979.03;5096508;27;20505;-42
2022/05/16 12:23:47;;;;;;;4.10;1.55;;;;;;;25.24;nan;101973.56;5098219;27;20519;-43
2022/05/16 12:26:29;;;;;;;4.03;1.38;;;;;;;25.46;nan;101969.09;5100477;27;20053;-42
2022/05/16 12:29:21;;;;;;;4.07;1.30;;;;;;;25.57;nan;101953.97;5097539;27;20089;-42